sensor_id;sensor_type;location;lat;lon;timestamp;P1;durP1;ratioP1;P2;durP2;ratioP2
12990;SDS011;6560;57.692;11.958;2022-09-09T00:09:17;1.00;;;1.00;;
12990;SDS011;6560;57.692;11.958;2022-09-09T00:11:43;1.73;;;0.93;;
12990;SDS011;6560;57.692;11.958;2022-09-09T00:14:13;1.20;;;1.10;;
12990;SDS011;6560;57.692;11.958;2022-09-09T00:16:40;1.00;;;0.90;;
12990;SDS011;6560;57.692;11.958;2022-09-09T00:19:08;1.10;;;1.00;;
12990;SDS011;6560;57.692;11.958;2022-09-09T00:21:39;1.30;;;1.20;;
12990;SDS011;6560;57.692;11.958;2022-09-09T00:24:10;2.83;;;1.10;;
12990;SDS011;6560;57.692;11.958;2022-09-09T00:29:05;1.07;;;0.80;;
12990;SDS011;6560;57.692;11.958;2022-09-09T00:31:35;1.07;;;0.77;;
12990;SDS011;6560;57.692;11.958;2022-09-09T00:34:09;1.37;;;0.90;;
12990;SDS011;6560;57.692;11.958;2022-09-09T00:36:36;1.27;;;0.80;;
12990;SDS011;6560;57.692;11.958;2022-09-09T00:39:03;1.33;;;1.00;;
12990;SDS011;6560;57.692;11.958;2022-09-09T00:44:01;1.03;;;0.80;;
12990;SDS011;6560;57.692;11.958;2022-09-09T00:47:33;2.10;;;0.90;;
12990;SDS011;6560;57.692;11.958;2022-09-09T00:57:43;2.47;;;1.23;;
12990;SDS011;6560;57.692;11.958;2022-09-09T01:05:27;0.80;;;0.80;;
12990;SDS011;6560;57.692;11.958;2022-09-09T01:07:55;1.30;;;0.90;;
12990;SDS011;6560;57.692;11.958;2022-09-09T01:13:11;1.53;;;1.00;;
12990;SDS011;6560;57.692;11.958;2022-09-09T01:15:38;0.97;;;0.97;;
12990;SDS011;6560;57.692;11.958;2022-09-09T01:18:09;1.57;;;1.00;;
12990;SDS011;6560;57.692;11.958;2022-09-09T01:23:31;1.60;;;0.90;;
12990;SDS011;6560;57.692;11.958;2022-09-09T01:28:30;0.80;;;0.80;;
12990;SDS011;6560;57.692;11.958;2022-09-09T01:30:56;1.30;;;1.20;;
12990;SDS011;6560;57.692;11.958;2022-09-09T01:33:22;1.20;;;1.10;;
12990;SDS011;6560;57.692;11.958;2022-09-09T01:35:55;3.20;;;1.03;;
12990;SDS011;6560;57.692;11.958;2022-09-09T01:38:21;1.87;;;1.00;;
12990;SDS011;6560;57.692;11.958;2022-09-09T01:40:47;1.03;;;1.03;;
12990;SDS011;6560;57.692;11.958;2022-09-09T01:43:13;1.67;;;1.07;;
12990;SDS011;6560;57.692;11.958;2022-09-09T01:45:39;1.37;;;1.17;;
12990;SDS011;6560;57.692;11.958;2022-09-09T01:48:06;1.07;;;0.90;;
12990;SDS011;6560;57.692;11.958;2022-09-09T01:50:31;3.30;;;1.47;;
12990;SDS011;6560;57.692;11.958;2022-09-09T01:52:58;2.00;;;1.03;;
12990;SDS011;6560;57.692;11.958;2022-09-09T01:55:28;1.70;;;1.00;;
12990;SDS011;6560;57.692;11.958;2022-09-09T02:00:31;2.83;;;1.10;;
12990;SDS011;6560;57.692;11.958;2022-09-09T02:03:20;2.17;;;1.00;;
12990;SDS011;6560;57.692;11.958;2022-09-09T02:05:52;2.03;;;0.90;;
12990;SDS011;6560;57.692;11.958;2022-09-09T02:08:21;0.87;;;0.87;;
12990;SDS011;6560;57.692;11.958;2022-09-09T02:11:09;1.00;;;0.90;;
12990;SDS011;6560;57.692;11.958;2022-09-09T02:13:36;1.57;;;1.27;;
12990;SDS011;6560;57.692;11.958;2022-09-09T02:16:04;1.17;;;1.07;;
12990;SDS011;6560;57.692;11.958;2022-09-09T02:18:36;1.20;;;1.07;;
12990;SDS011;6560;57.692;11.958;2022-09-09T02:21:04;2.10;;;1.20;;
12990;SDS011;6560;57.692;11.958;2022-09-09T02:23:30;1.20;;;1.13;;
12990;SDS011;6560;57.692;11.958;2022-09-09T02:25:57;1.13;;;0.90;;
12990;SDS011;6560;57.692;11.958;2022-09-09T02:28:23;0.97;;;0.97;;
12990;SDS011;6560;57.692;11.958;2022-09-09T02:30:50;1.30;;;1.00;;
12990;SDS011;6560;57.692;11.958;2022-09-09T02:33:20;1.30;;;1.20;;
12990;SDS011;6560;57.692;11.958;2022-09-09T02:35:47;2.87;;;1.50;;
12990;SDS011;6560;57.692;11.958;2022-09-09T02:38:13;1.20;;;1.10;;
12990;SDS011;6560;57.692;11.958;2022-09-09T02:40:40;3.37;;;1.40;;
12990;SDS011;6560;57.692;11.958;2022-09-09T02:43:05;0.90;;;0.90;;
12990;SDS011;6560;57.692;11.958;2022-09-09T02:45:53;1.17;;;1.00;;
12990;SDS011;6560;57.692;11.958;2022-09-09T02:51:08;1.13;;;1.10;;
12990;SDS011;6560;57.692;11.958;2022-09-09T02:58:28;0.93;;;0.93;;
12990;SDS011;6560;57.692;11.958;2022-09-09T03:00:54;11.43;;;1.60;;
12990;SDS011;6560;57.692;11.958;2022-09-09T03:03:20;3.33;;;1.23;;
12990;SDS011;6560;57.692;11.958;2022-09-09T03:05:47;1.10;;;1.10;;
12990;SDS011;6560;57.692;11.958;2022-09-09T03:08:12;3.70;;;1.30;;
12990;SDS011;6560;57.692;11.958;2022-09-09T03:10:38;3.47;;;1.60;;
12990;SDS011;6560;57.692;11.958;2022-09-09T03:13:03;1.53;;;1.43;;
12990;SDS011;6560;57.692;11.958;2022-09-09T03:15:30;1.23;;;1.23;;
12990;SDS011;6560;57.692;11.958;2022-09-09T03:17:56;2.20;;;1.37;;
12990;SDS011;6560;57.692;11.958;2022-09-09T03:20:22;2.00;;;1.40;;
12990;SDS011;6560;57.692;11.958;2022-09-09T03:22:48;1.53;;;1.10;;
12990;SDS011;6560;57.692;11.958;2022-09-09T03:25:13;5.27;;;1.63;;
12990;SDS011;6560;57.692;11.958;2022-09-09T03:27:38;1.53;;;1.27;;
12990;SDS011;6560;57.692;11.958;2022-09-09T03:30:04;1.33;;;1.23;;
12990;SDS011;6560;57.692;11.958;2022-09-09T03:32:30;4.43;;;1.63;;
12990;SDS011;6560;57.692;11.958;2022-09-09T03:34:56;2.97;;;1.57;;
12990;SDS011;6560;57.692;11.958;2022-09-09T03:37:21;1.30;;;1.20;;
12990;SDS011;6560;57.692;11.958;2022-09-09T03:39:47;3.00;;;1.50;;
12990;SDS011;6560;57.692;11.958;2022-09-09T03:42:13;5.33;;;2.47;;
12990;SDS011;6560;57.692;11.958;2022-09-09T03:44:45;1.30;;;1.20;;
12990;SDS011;6560;57.692;11.958;2022-09-09T03:47:15;1.20;;;1.20;;
12990;SDS011;6560;57.692;11.958;2022-09-09T03:49:40;1.37;;;1.27;;
12990;SDS011;6560;57.692;11.958;2022-09-09T03:52:06;3.87;;;1.70;;
12990;SDS011;6560;57.692;11.958;2022-09-09T03:54:31;1.87;;;1.73;;
12990;SDS011;6560;57.692;11.958;2022-09-09T03:56:56;1.40;;;1.27;;
12990;SDS011;6560;57.692;11.958;2022-09-09T03:59:22;1.70;;;1.40;;
12990;SDS011;6560;57.692;11.958;2022-09-09T04:01:48;1.27;;;1.17;;
12990;SDS011;6560;57.692;11.958;2022-09-09T04:04:13;2.83;;;2.17;;
12990;SDS011;6560;57.692;11.958;2022-09-09T04:06:38;1.50;;;1.33;;
12990;SDS011;6560;57.692;11.958;2022-09-09T04:09:04;1.43;;;1.20;;
12990;SDS011;6560;57.692;11.958;2022-09-09T04:11:29;1.40;;;1.30;;
12990;SDS011;6560;57.692;11.958;2022-09-09T04:13:54;1.53;;;1.23;;
12990;SDS011;6560;57.692;11.958;2022-09-09T04:16:20;2.13;;;1.30;;
12990;SDS011;6560;57.692;11.958;2022-09-09T04:18:45;2.23;;;1.50;;
12990;SDS011;6560;57.692;11.958;2022-09-09T04:21:11;1.93;;;1.60;;
12990;SDS011;6560;57.692;11.958;2022-09-09T04:23:37;1.67;;;1.20;;
12990;SDS011;6560;57.692;11.958;2022-09-09T04:26:03;1.93;;;1.47;;
12990;SDS011;6560;57.692;11.958;2022-09-09T04:28:30;2.90;;;1.20;;
12990;SDS011;6560;57.692;11.958;2022-09-09T04:30:56;1.30;;;1.20;;
12990;SDS011;6560;57.692;11.958;2022-09-09T04:33:23;2.87;;;1.40;;
12990;SDS011;6560;57.692;11.958;2022-09-09T04:35:50;6.83;;;1.50;;
12990;SDS011;6560;57.692;11.958;2022-09-09T04:38:16;2.57;;;1.60;;
12990;SDS011;6560;57.692;11.958;2022-09-09T04:40:47;3.63;;;1.53;;
12990;SDS011;6560;57.692;11.958;2022-09-09T04:43:13;1.73;;;1.40;;
12990;SDS011;6560;57.692;11.958;2022-09-09T04:45:39;4.30;;;1.63;;
12990;SDS011;6560;57.692;11.958;2022-09-09T04:48:05;1.33;;;1.23;;
12990;SDS011;6560;57.692;11.958;2022-09-09T04:50:31;1.50;;;1.40;;
12990;SDS011;6560;57.692;11.958;2022-09-09T04:52:59;2.20;;;1.57;;
12990;SDS011;6560;57.692;11.958;2022-09-09T04:55:24;3.10;;;2.13;;
12990;SDS011;6560;57.692;11.958;2022-09-09T04:57:49;2.60;;;1.63;;
12990;SDS011;6560;57.692;11.958;2022-09-09T05:00:15;3.03;;;1.30;;
12990;SDS011;6560;57.692;11.958;2022-09-09T05:02:41;2.10;;;1.23;;
12990;SDS011;6560;57.692;11.958;2022-09-09T05:05:07;6.27;;;2.03;;
12990;SDS011;6560;57.692;11.958;2022-09-09T05:07:33;1.80;;;1.70;;
12990;SDS011;6560;57.692;11.958;2022-09-09T05:09:58;2.90;;;1.93;;
12990;SDS011;6560;57.692;11.958;2022-09-09T05:12:24;2.13;;;1.43;;
12990;SDS011;6560;57.692;11.958;2022-09-09T05:14:50;1.70;;;1.60;;
12990;SDS011;6560;57.692;11.958;2022-09-09T05:17:15;2.93;;;1.40;;
12990;SDS011;6560;57.692;11.958;2022-09-09T05:19:41;4.07;;;1.57;;
12990;SDS011;6560;57.692;11.958;2022-09-09T05:22:06;2.27;;;1.47;;
12990;SDS011;6560;57.692;11.958;2022-09-09T05:24:32;3.10;;;1.70;;
12990;SDS011;6560;57.692;11.958;2022-09-09T05:26:58;1.20;;;1.10;;
12990;SDS011;6560;57.692;11.958;2022-09-09T05:29:24;1.40;;;1.30;;
12990;SDS011;6560;57.692;11.958;2022-09-09T05:31:50;2.90;;;1.53;;
12990;SDS011;6560;57.692;11.958;2022-09-09T05:34:15;4.13;;;1.30;;
12990;SDS011;6560;57.692;11.958;2022-09-09T05:36:41;2.53;;;1.57;;
12990;SDS011;6560;57.692;11.958;2022-09-09T05:39:06;1.40;;;1.30;;
12990;SDS011;6560;57.692;11.958;2022-09-09T05:41:31;2.33;;;1.23;;
12990;SDS011;6560;57.692;11.958;2022-09-09T05:43:57;2.40;;;1.53;;
12990;SDS011;6560;57.692;11.958;2022-09-09T05:46:26;4.50;;;1.60;;
12990;SDS011;6560;57.692;11.958;2022-09-09T05:48:51;2.53;;;1.37;;
12990;SDS011;6560;57.692;11.958;2022-09-09T05:51:20;3.03;;;1.23;;
12990;SDS011;6560;57.692;11.958;2022-09-09T05:53:46;3.17;;;1.83;;
12990;SDS011;6560;57.692;11.958;2022-09-09T05:56:13;1.90;;;1.47;;
12990;SDS011;6560;57.692;11.958;2022-09-09T05:58:42;11.70;;;1.50;;
12990;SDS011;6560;57.692;11.958;2022-09-09T06:03:40;2.30;;;1.47;;
12990;SDS011;6560;57.692;11.958;2022-09-09T06:06:07;2.53;;;1.83;;
12990;SDS011;6560;57.692;11.958;2022-09-09T06:08:33;3.67;;;1.83;;
12990;SDS011;6560;57.692;11.958;2022-09-09T06:11:03;2.50;;;1.90;;
12990;SDS011;6560;57.692;11.958;2022-09-09T06:13:29;5.23;;;1.70;;
12990;SDS011;6560;57.692;11.958;2022-09-09T06:15:54;5.23;;;2.40;;
12990;SDS011;6560;57.692;11.958;2022-09-09T06:18:19;7.07;;;2.40;;
12990;SDS011;6560;57.692;11.958;2022-09-09T06:20:57;5.80;;;2.67;;
12990;SDS011;6560;57.692;11.958;2022-09-09T06:23:23;4.37;;;2.20;;
12990;SDS011;6560;57.692;11.958;2022-09-09T06:25:48;5.90;;;2.13;;
12990;SDS011;6560;57.692;11.958;2022-09-09T06:28:14;3.60;;;2.33;;
12990;SDS011;6560;57.692;11.958;2022-09-09T06:30:40;6.07;;;2.33;;
12990;SDS011;6560;57.692;11.958;2022-09-09T06:33:06;6.47;;;2.37;;
12990;SDS011;6560;57.692;11.958;2022-09-09T06:35:31;5.10;;;3.07;;
12990;SDS011;6560;57.692;11.958;2022-09-09T06:37:56;3.57;;;2.10;;
12990;SDS011;6560;57.692;11.958;2022-09-09T06:40:23;8.97;;;2.30;;
12990;SDS011;6560;57.692;11.958;2022-09-09T06:42:48;2.77;;;2.43;;
12990;SDS011;6560;57.692;11.958;2022-09-09T06:45:14;3.80;;;2.87;;
12990;SDS011;6560;57.692;11.958;2022-09-09T06:47:39;8.87;;;3.37;;
12990;SDS011;6560;57.692;11.958;2022-09-09T06:50:05;5.73;;;2.70;;
12990;SDS011;6560;57.692;11.958;2022-09-09T06:52:32;3.50;;;2.33;;
12990;SDS011;6560;57.692;11.958;2022-09-09T06:54:58;3.97;;;2.63;;
12990;SDS011;6560;57.692;11.958;2022-09-09T06:57:24;5.50;;;2.83;;
12990;SDS011;6560;57.692;11.958;2022-09-09T06:59:49;4.00;;;2.30;;
12990;SDS011;6560;57.692;11.958;2022-09-09T07:02:14;5.93;;;2.30;;
12990;SDS011;6560;57.692;11.958;2022-09-09T07:04:40;3.53;;;2.50;;
12990;SDS011;6560;57.692;11.958;2022-09-09T07:07:05;8.10;;;3.23;;
12990;SDS011;6560;57.692;11.958;2022-09-09T07:09:31;3.87;;;2.83;;
12990;SDS011;6560;57.692;11.958;2022-09-09T07:11:56;11.63;;;3.13;;
12990;SDS011;6560;57.692;11.958;2022-09-09T07:14:24;7.10;;;3.07;;
12990;SDS011;6560;57.692;11.958;2022-09-09T07:16:49;5.50;;;2.77;;
12990;SDS011;6560;57.692;11.958;2022-09-09T07:19:15;5.63;;;3.00;;
12990;SDS011;6560;57.692;11.958;2022-09-09T07:21:40;3.30;;;2.43;;
12990;SDS011;6560;57.692;11.958;2022-09-09T07:24:06;8.48;;;2.72;;
12990;SDS011;6560;57.692;11.958;2022-09-09T07:26:36;6.17;;;2.43;;
12990;SDS011;6560;57.692;11.958;2022-09-09T07:29:02;7.30;;;2.47;;
12990;SDS011;6560;57.692;11.958;2022-09-09T07:31:28;3.20;;;2.20;;
12990;SDS011;6560;57.692;11.958;2022-09-09T07:33:55;4.30;;;2.23;;
12990;SDS011;6560;57.692;11.958;2022-09-09T07:36:25;4.43;;;2.37;;
12990;SDS011;6560;57.692;11.958;2022-09-09T07:38:58;5.37;;;2.30;;
12990;SDS011;6560;57.692;11.958;2022-09-09T07:41:25;4.03;;;2.40;;
12990;SDS011;6560;57.692;11.958;2022-09-09T07:43:51;4.30;;;1.80;;
12990;SDS011;6560;57.692;11.958;2022-09-09T07:46:19;4.80;;;1.80;;
12990;SDS011;6560;57.692;11.958;2022-09-09T07:48:45;5.63;;;2.10;;
12990;SDS011;6560;57.692;11.958;2022-09-09T07:51:11;6.23;;;2.07;;
12990;SDS011;6560;57.692;11.958;2022-09-09T07:53:38;3.67;;;1.47;;
12990;SDS011;6560;57.692;11.958;2022-09-09T07:56:04;3.03;;;1.93;;
12990;SDS011;6560;57.692;11.958;2022-09-09T07:58:29;7.23;;;2.13;;
12990;SDS011;6560;57.692;11.958;2022-09-09T08:00:55;2.33;;;1.37;;
12990;SDS011;6560;57.692;11.958;2022-09-09T08:03:20;2.40;;;1.97;;
12990;SDS011;6560;57.692;11.958;2022-09-09T08:05:47;4.00;;;1.83;;
12990;SDS011;6560;57.692;11.958;2022-09-09T08:08:12;6.60;;;2.03;;
12990;SDS011;6560;57.692;11.958;2022-09-09T08:10:37;5.27;;;2.20;;
12990;SDS011;6560;57.692;11.958;2022-09-09T08:13:03;6.20;;;1.97;;
12990;SDS011;6560;57.692;11.958;2022-09-09T08:15:28;7.90;;;2.10;;
12990;SDS011;6560;57.692;11.958;2022-09-09T08:17:56;5.20;;;1.90;;
12990;SDS011;6560;57.692;11.958;2022-09-09T08:20:21;4.47;;;1.40;;
12990;SDS011;6560;57.692;11.958;2022-09-09T08:22:48;2.53;;;1.57;;
12990;SDS011;6560;57.692;11.958;2022-09-09T08:25:14;4.03;;;1.92;;
12990;SDS011;6560;57.692;11.958;2022-09-09T08:27:40;4.23;;;1.97;;
12990;SDS011;6560;57.692;11.958;2022-09-09T08:30:05;7.80;;;1.50;;
12990;SDS011;6560;57.692;11.958;2022-09-09T08:32:31;4.60;;;1.75;;
12990;SDS011;6560;57.692;11.958;2022-09-09T08:34:56;6.40;;;1.93;;
12990;SDS011;6560;57.692;11.958;2022-09-09T08:37:22;6.03;;;1.60;;
12990;SDS011;6560;57.692;11.958;2022-09-09T08:39:47;4.13;;;1.70;;
12990;SDS011;6560;57.692;11.958;2022-09-09T08:55:20;4.10;;;1.97;;
12990;SDS011;6560;57.692;11.958;2022-09-09T08:57:46;5.77;;;1.70;;
12990;SDS011;6560;57.692;11.958;2022-09-09T09:00:13;4.40;;;2.07;;
12990;SDS011;6560;57.692;11.958;2022-09-09T09:12:38;4.15;;;2.38;;
12990;SDS011;6560;57.692;11.958;2022-09-09T09:15:11;3.43;;;1.70;;
12990;SDS011;6560;57.692;11.958;2022-09-09T09:17:41;3.75;;;1.55;;
12990;SDS011;6560;57.692;11.958;2022-09-09T09:20:11;3.75;;;2.10;;
12990;SDS011;6560;57.692;11.958;2022-09-09T09:25:05;4.93;;;2.10;;
12990;SDS011;6560;57.692;11.958;2022-09-09T09:30:17;3.03;;;2.20;;
12990;SDS011;6560;57.692;11.958;2022-09-09T09:32:46;3.22;;;1.80;;
12990;SDS011;6560;57.692;11.958;2022-09-09T09:35:13;3.10;;;2.00;;
12990;SDS011;6560;57.692;11.958;2022-09-09T09:37:39;4.15;;;2.30;;
12990;SDS011;6560;57.692;11.958;2022-09-09T09:40:09;4.30;;;1.75;;
12990;SDS011;6560;57.692;11.958;2022-09-09T09:42:34;5.15;;;2.42;;
12990;SDS011;6560;57.692;11.958;2022-09-09T09:48:05;3.97;;;1.83;;
12990;SDS011;6560;57.692;11.958;2022-09-09T09:50:32;3.00;;;1.50;;
12990;SDS011;6560;57.692;11.958;2022-09-09T09:53:02;6.43;;;2.00;;
12990;SDS011;6560;57.692;11.958;2022-09-09T09:55:28;5.05;;;1.80;;
12990;SDS011;6560;57.692;11.958;2022-09-09T09:58:02;4.53;;;2.70;;
12990;SDS011;6560;57.692;11.958;2022-09-09T10:00:29;4.82;;;2.40;;
12990;SDS011;6560;57.692;11.958;2022-09-09T10:02:54;4.88;;;2.58;;
12990;SDS011;6560;57.692;11.958;2022-09-09T10:05:22;9.55;;;2.88;;
12990;SDS011;6560;57.692;11.958;2022-09-09T10:08:33;2.65;;;2.42;;
12990;SDS011;6560;57.692;11.958;2022-09-09T10:10:40;4.00;;;2.53;;
12990;SDS011;6560;57.692;11.958;2022-09-09T10:15:37;3.70;;;2.20;;
12990;SDS011;6560;57.692;11.958;2022-09-09T10:18:22;5.33;;;1.70;;
12990;SDS011;6560;57.692;11.958;2022-09-09T10:26:03;9.57;;;2.50;;
12990;SDS011;6560;57.692;11.958;2022-09-09T10:36:46;3.43;;;2.70;;
12990;SDS011;6560;57.692;11.958;2022-09-09T10:38:45;4.00;;;2.87;;
12990;SDS011;6560;57.692;11.958;2022-09-09T10:59:50;3.17;;;2.57;;
12990;SDS011;6560;57.692;11.958;2022-09-09T11:02:28;6.33;;;3.23;;
12990;SDS011;6560;57.692;11.958;2022-09-09T11:04:58;5.27;;;3.03;;
12990;SDS011;6560;57.692;11.958;2022-09-09T11:07:30;5.57;;;3.03;;
12990;SDS011;6560;57.692;11.958;2022-09-09T11:10:00;3.70;;;2.90;;
12990;SDS011;6560;57.692;11.958;2022-09-09T11:12:27;5.93;;;2.80;;
12990;SDS011;6560;57.692;11.958;2022-09-09T11:17:23;4.70;;;2.80;;
12990;SDS011;6560;57.692;11.958;2022-09-09T11:19:49;4.17;;;3.23;;
12990;SDS011;6560;57.692;11.958;2022-09-09T11:22:31;5.90;;;3.53;;
12990;SDS011;6560;57.692;11.958;2022-09-09T11:27:36;4.13;;;2.70;;
12990;SDS011;6560;57.692;11.958;2022-09-09T11:32:54;8.20;;;3.53;;
12990;SDS011;6560;57.692;11.958;2022-09-09T11:40:36;6.27;;;3.23;;
12990;SDS011;6560;57.692;11.958;2022-09-09T11:43:09;6.20;;;4.10;;
12990;SDS011;6560;57.692;11.958;2022-09-09T11:45:38;5.07;;;3.60;;
12990;SDS011;6560;57.692;11.958;2022-09-09T11:48:04;8.50;;;3.33;;
12990;SDS011;6560;57.692;11.958;2022-09-09T11:50:35;5.73;;;3.17;;
12990;SDS011;6560;57.692;11.958;2022-09-09T11:53:19;5.10;;;3.80;;
12990;SDS011;6560;57.692;11.958;2022-09-09T11:55:46;8.10;;;4.00;;
12990;SDS011;6560;57.692;11.958;2022-09-09T12:00:41;8.13;;;4.30;;
12990;SDS011;6560;57.692;11.958;2022-09-09T12:05:51;4.40;;;3.57;;
12990;SDS011;6560;57.692;11.958;2022-09-09T12:08:19;6.87;;;3.63;;
12990;SDS011;6560;57.692;11.958;2022-09-09T12:10:54;6.93;;;3.60;;
12990;SDS011;6560;57.692;11.958;2022-09-09T12:13:21;4.53;;;3.77;;
12990;SDS011;6560;57.692;11.958;2022-09-09T12:15:51;5.07;;;3.33;;
12990;SDS011;6560;57.692;11.958;2022-09-09T12:18:39;7.13;;;4.17;;
12990;SDS011;6560;57.692;11.958;2022-09-09T12:21:11;7.53;;;3.97;;
12990;SDS011;6560;57.692;11.958;2022-09-09T12:23:52;7.67;;;3.10;;
12990;SDS011;6560;57.692;11.958;2022-09-09T12:29:16;6.23;;;3.40;;
12990;SDS011;6560;57.692;11.958;2022-09-09T12:36:36;5.17;;;3.50;;
12990;SDS011;6560;57.692;11.958;2022-09-09T12:39:09;8.37;;;4.20;;
12990;SDS011;6560;57.692;11.958;2022-09-09T12:41:35;6.60;;;3.93;;
12990;SDS011;6560;57.692;11.958;2022-09-09T12:44:04;6.47;;;3.40;;
12990;SDS011;6560;57.692;11.958;2022-09-09T12:46:40;5.57;;;3.73;;
12990;SDS011;6560;57.692;11.958;2022-09-09T12:51:51;6.17;;;3.23;;
12990;SDS011;6560;57.692;11.958;2022-09-09T12:54:16;5.90;;;3.33;;
12990;SDS011;6560;57.692;11.958;2022-09-09T12:56:45;6.80;;;3.10;;
12990;SDS011;6560;57.692;11.958;2022-09-09T12:59:17;5.47;;;3.60;;
12990;SDS011;6560;57.692;11.958;2022-09-09T13:01:54;5.60;;;2.87;;
12990;SDS011;6560;57.692;11.958;2022-09-09T13:04:20;6.23;;;3.40;;
12990;SDS011;6560;57.692;11.958;2022-09-09T13:06:47;4.87;;;3.77;;
12990;SDS011;6560;57.692;11.958;2022-09-09T13:09:12;5.07;;;3.50;;
12990;SDS011;6560;57.692;11.958;2022-09-09T13:11:38;4.73;;;3.40;;
12990;SDS011;6560;57.692;11.958;2022-09-09T13:14:04;8.33;;;3.97;;
12990;SDS011;6560;57.692;11.958;2022-09-09T13:16:32;7.23;;;3.57;;
12990;SDS011;6560;57.692;11.958;2022-09-09T13:18:59;6.97;;;4.00;;
12990;SDS011;6560;57.692;11.958;2022-09-09T13:21:34;6.07;;;3.70;;
12990;SDS011;6560;57.692;11.958;2022-09-09T13:24:00;4.17;;;3.73;;
12990;SDS011;6560;57.692;11.958;2022-09-09T13:26:28;5.53;;;4.13;;
12990;SDS011;6560;57.692;11.958;2022-09-09T13:28:55;6.90;;;4.10;;
12990;SDS011;6560;57.692;11.958;2022-09-09T13:31:38;6.03;;;3.60;;
12990;SDS011;6560;57.692;11.958;2022-09-09T13:34:11;7.03;;;4.10;;
12990;SDS011;6560;57.692;11.958;2022-09-09T13:36:36;8.50;;;4.40;;
12990;SDS011;6560;57.692;11.958;2022-09-09T13:39:02;8.07;;;3.90;;
12990;SDS011;6560;57.692;11.958;2022-09-09T13:43:53;5.23;;;3.87;;
12990;SDS011;6560;57.692;11.958;2022-09-09T13:46:41;5.27;;;3.83;;
12990;SDS011;6560;57.692;11.958;2022-09-09T13:51:38;4.60;;;4.13;;
12990;SDS011;6560;57.692;11.958;2022-09-09T13:54:05;5.40;;;4.20;;
12990;SDS011;6560;57.692;11.958;2022-09-09T13:56:32;8.10;;;4.43;;
12990;SDS011;6560;57.692;11.958;2022-09-09T13:58:57;9.00;;;4.80;;
12990;SDS011;6560;57.692;11.958;2022-09-09T14:01:23;8.13;;;4.47;;
12990;SDS011;6560;57.692;11.958;2022-09-09T14:03:48;7.43;;;4.57;;
12990;SDS011;6560;57.692;11.958;2022-09-09T14:06:14;5.37;;;3.80;;
12990;SDS011;6560;57.692;11.958;2022-09-09T14:08:39;8.23;;;4.33;;
12990;SDS011;6560;57.692;11.958;2022-09-09T14:11:05;7.53;;;4.73;;
12990;SDS011;6560;57.692;11.958;2022-09-09T14:13:31;8.30;;;4.30;;
12990;SDS011;6560;57.692;11.958;2022-09-09T14:15:56;5.73;;;4.47;;
12990;SDS011;6560;57.692;11.958;2022-09-09T14:18:22;6.37;;;3.73;;
12990;SDS011;6560;57.692;11.958;2022-09-09T14:20:48;7.50;;;4.23;;
12990;SDS011;6560;57.692;11.958;2022-09-09T14:23:15;5.57;;;4.53;;
12990;SDS011;6560;57.692;11.958;2022-09-09T14:25:41;7.27;;;4.50;;
12990;SDS011;6560;57.692;11.958;2022-09-09T14:28:08;5.20;;;4.10;;
12990;SDS011;6560;57.692;11.958;2022-09-09T14:30:33;5.47;;;4.30;;
12990;SDS011;6560;57.692;11.958;2022-09-09T14:32:59;6.53;;;4.67;;
12990;SDS011;6560;57.692;11.958;2022-09-09T14:35:25;4.60;;;4.03;;
12990;SDS011;6560;57.692;11.958;2022-09-09T14:37:50;6.90;;;4.50;;
12990;SDS011;6560;57.692;11.958;2022-09-09T14:40:16;4.47;;;3.70;;
12990;SDS011;6560;57.692;11.958;2022-09-09T14:42:42;6.20;;;4.50;;
12990;SDS011;6560;57.692;11.958;2022-09-09T14:45:07;5.80;;;4.03;;
12990;SDS011;6560;57.692;11.958;2022-09-09T14:47:32;5.77;;;4.40;;
12990;SDS011;6560;57.692;11.958;2022-09-09T14:49:58;6.33;;;3.97;;
12990;SDS011;6560;57.692;11.958;2022-09-09T14:52:23;6.47;;;4.80;;
12990;SDS011;6560;57.692;11.958;2022-09-09T14:54:48;4.90;;;3.80;;
12990;SDS011;6560;57.692;11.958;2022-09-09T14:57:14;5.43;;;4.00;;
12990;SDS011;6560;57.692;11.958;2022-09-09T14:59:39;5.23;;;4.00;;
12990;SDS011;6560;57.692;11.958;2022-09-09T15:02:05;4.00;;;3.20;;
12990;SDS011;6560;57.692;11.958;2022-09-09T15:04:30;4.53;;;3.63;;
12990;SDS011;6560;57.692;11.958;2022-09-09T15:06:55;3.60;;;3.27;;
12990;SDS011;6560;57.692;11.958;2022-09-09T15:09:21;3.80;;;3.03;;
12990;SDS011;6560;57.692;11.958;2022-09-09T15:11:46;3.50;;;3.20;;
12990;SDS011;6560;57.692;11.958;2022-09-09T15:14:12;4.23;;;3.47;;
12990;SDS011;6560;57.692;11.958;2022-09-09T15:16:37;4.50;;;3.10;;
12990;SDS011;6560;57.692;11.958;2022-09-09T15:19:03;2.97;;;2.70;;
12990;SDS011;6560;57.692;11.958;2022-09-09T15:21:29;3.03;;;2.73;;
12990;SDS011;6560;57.692;11.958;2022-09-09T15:23:55;4.00;;;3.17;;
12990;SDS011;6560;57.692;11.958;2022-09-09T15:26:21;3.53;;;2.80;;
12990;SDS011;6560;57.692;11.958;2022-09-09T15:28:47;3.30;;;3.00;;
12990;SDS011;6560;57.692;11.958;2022-09-09T15:33:39;4.37;;;3.30;;
12990;SDS011;6560;57.692;11.958;2022-09-09T15:36:14;3.90;;;3.23;;
12990;SDS011;6560;57.692;11.958;2022-09-09T15:38:40;5.37;;;3.63;;
12990;SDS011;6560;57.692;11.958;2022-09-09T15:41:05;3.50;;;3.20;;
12990;SDS011;6560;57.692;11.958;2022-09-09T15:43:31;5.30;;;3.80;;
12990;SDS011;6560;57.692;11.958;2022-09-09T15:45:58;3.67;;;3.20;;
12990;SDS011;6560;57.692;11.958;2022-09-09T15:48:29;5.63;;;3.40;;
12990;SDS011;6560;57.692;11.958;2022-09-09T15:51:02;4.37;;;3.90;;
12990;SDS011;6560;57.692;11.958;2022-09-09T15:53:28;4.00;;;3.60;;
12990;SDS011;6560;57.692;11.958;2022-09-09T15:55:55;3.93;;;3.60;;
12990;SDS011;6560;57.692;11.958;2022-09-09T15:58:20;5.07;;;3.20;;
12990;SDS011;6560;57.692;11.958;2022-09-09T16:00:46;4.97;;;4.23;;
12990;SDS011;6560;57.692;11.958;2022-09-09T16:03:11;4.97;;;4.57;;
12990;SDS011;6560;57.692;11.958;2022-09-09T16:05:37;3.73;;;3.37;;
12990;SDS011;6560;57.692;11.958;2022-09-09T16:08:02;5.40;;;3.57;;
12990;SDS011;6560;57.692;11.958;2022-09-09T16:10:28;4.53;;;3.83;;
12990;SDS011;6560;57.692;11.958;2022-09-09T16:12:53;5.13;;;3.60;;
12990;SDS011;6560;57.692;11.958;2022-09-09T16:15:18;4.83;;;3.73;;
12990;SDS011;6560;57.692;11.958;2022-09-09T16:17:47;3.80;;;3.40;;
12990;SDS011;6560;57.692;11.958;2022-09-09T16:20:12;4.00;;;3.20;;
12990;SDS011;6560;57.692;11.958;2022-09-09T16:22:39;3.53;;;3.20;;
12990;SDS011;6560;57.692;11.958;2022-09-09T16:25:05;4.33;;;3.60;;
12990;SDS011;6560;57.692;11.958;2022-09-09T16:27:31;5.87;;;3.27;;
12990;SDS011;6560;57.692;11.958;2022-09-09T16:29:56;2.70;;;2.43;;
12990;SDS011;6560;57.692;11.958;2022-09-09T16:32:21;4.03;;;2.67;;
12990;SDS011;6560;57.692;11.958;2022-09-09T16:34:47;3.00;;;2.63;;
12990;SDS011;6560;57.692;11.958;2022-09-09T16:37:12;2.87;;;2.50;;
12990;SDS011;6560;57.692;11.958;2022-09-09T16:39:38;3.90;;;3.03;;
12990;SDS011;6560;57.692;11.958;2022-09-09T16:42:03;3.13;;;2.20;;
12990;SDS011;6560;57.692;11.958;2022-09-09T16:44:29;3.67;;;2.47;;
12990;SDS011;6560;57.692;11.958;2022-09-09T16:46:55;3.00;;;2.67;;
12990;SDS011;6560;57.692;11.958;2022-09-09T16:49:20;4.60;;;2.20;;
12990;SDS011;6560;57.692;11.958;2022-09-09T16:51:47;3.10;;;2.53;;
12990;SDS011;6560;57.692;11.958;2022-09-09T16:54:12;2.40;;;2.20;;
12990;SDS011;6560;57.692;11.958;2022-09-09T16:56:39;4.80;;;2.50;;
12990;SDS011;6560;57.692;11.958;2022-09-09T16:59:12;3.03;;;2.73;;
12990;SDS011;6560;57.692;11.958;2022-09-09T17:01:38;2.67;;;2.40;;
12990;SDS011;6560;57.692;11.958;2022-09-09T17:04:06;2.60;;;2.40;;
12990;SDS011;6560;57.692;11.958;2022-09-09T17:06:33;3.20;;;2.47;;
12990;SDS011;6560;57.692;11.958;2022-09-09T17:09:03;2.23;;;1.90;;
12990;SDS011;6560;57.692;11.958;2022-09-09T17:11:29;2.20;;;2.00;;
12990;SDS011;6560;57.692;11.958;2022-09-09T17:13:55;2.83;;;2.00;;
12990;SDS011;6560;57.692;11.958;2022-09-09T17:16:21;2.47;;;2.10;;
12990;SDS011;6560;57.692;11.958;2022-09-09T17:18:47;2.53;;;2.33;;